sensor_id;sensor_type;location;lat;lon;timestamp;P1;durP1;ratioP1;P2;durP2;ratioP2
71296;SDS011;59082;50.658;4.608;2023-04-24T05:20:17;12.10;;;7.73;;
71296;SDS011;59082;50.658;4.608;2023-04-24T05:22:43;12.50;;;7.03;;
71296;SDS011;59082;50.658;4.608;2023-04-24T05:25:08;13.87;;;8.47;;
71296;SDS011;59082;50.658;4.608;2023-04-24T05:27:34;10.27;;;7.00;;
71296;SDS011;59082;50.658;4.608;2023-04-24T05:29:59;11.17;;;7.27;;
71296;SDS011;59082;50.658;4.608;2023-04-24T05:32:25;15.80;;;8.27;;
71296;SDS011;59082;50.658;4.608;2023-04-24T05:34:52;18.17;;;9.00;;
71296;SDS011;59082;50.658;4.608;2023-04-24T05:37:17;16.73;;;9.40;;
71296;SDS011;59082;50.658;4.608;2023-04-24T05:39:42;15.67;;;8.00;;
71296;SDS011;59082;50.658;4.608;2023-04-24T05:42:08;15.83;;;10.03;;
71296;SDS011;59082;50.658;4.608;2023-04-24T05:44:33;16.97;;;9.80;;
71296;SDS011;59082;50.658;4.608;2023-04-24T05:46:58;17.23;;;10.67;;
71296;SDS011;59082;50.658;4.608;2023-04-24T05:49:24;21.13;;;10.68;;
71296;SDS011;59082;50.658;4.608;2023-04-24T05:51:49;15.47;;;10.63;;
71296;SDS011;59082;50.658;4.608;2023-04-24T05:54:15;19.17;;;10.40;;
71296;SDS011;59082;50.658;4.608;2023-04-24T05:56:40;16.37;;;10.50;;
71296;SDS011;59082;50.658;4.608;2023-04-24T05:59:05;17.53;;;10.50;;
71296;SDS011;59082;50.658;4.608;2023-04-24T06:01:31;16.80;;;11.18;;
71296;SDS011;59082;50.658;4.608;2023-04-24T06:03:57;17.83;;;9.87;;
71296;SDS011;59082;50.658;4.608;2023-04-24T06:06:25;17.42;;;10.45;;
71296;SDS011;59082;50.658;4.608;2023-04-24T06:08:52;16.97;;;10.30;;
71296;SDS011;59082;50.658;4.608;2023-04-24T06:11:17;18.83;;;11.05;;
71296;SDS011;59082;50.658;4.608;2023-04-24T06:13:43;16.20;;;9.63;;
71296;SDS011;59082;50.658;4.608;2023-04-24T06:16:08;19.93;;;9.90;;
71296;SDS011;59082;50.658;4.608;2023-04-24T06:18:34;19.13;;;10.40;;
71296;SDS011;59082;50.658;4.608;2023-04-24T06:21:00;16.20;;;9.57;;
71296;SDS011;59082;50.658;4.608;2023-04-24T06:23:26;16.30;;;8.88;;
71296;SDS011;59082;50.658;4.608;2023-04-24T06:25:51;18.87;;;10.53;;
71296;SDS011;59082;50.658;4.608;2023-04-24T06:28:17;18.63;;;10.70;;
71296;SDS011;59082;50.658;4.608;2023-04-24T06:30:42;19.53;;;10.40;;
71296;SDS011;59082;50.658;4.608;2023-04-24T06:33:08;18.15;;;10.82;;
71296;SDS011;59082;50.658;4.608;2023-04-24T06:35:33;19.83;;;11.00;;
71296;SDS011;59082;50.658;4.608;2023-04-24T06:37:59;20.58;;;11.93;;
71296;SDS011;59082;50.658;4.608;2023-04-24T06:40:24;28.10;;;13.13;;
71296;SDS011;59082;50.658;4.608;2023-04-24T06:42:50;23.00;;;13.30;;
71296;SDS011;59082;50.658;4.608;2023-04-24T06:45:15;25.67;;;12.10;;
71296;SDS011;59082;50.658;4.608;2023-04-24T06:47:41;24.65;;;12.55;;
71296;SDS011;59082;50.658;4.608;2023-04-24T06:50:06;22.47;;;12.87;;
71296;SDS011;59082;50.658;4.608;2023-04-24T06:52:32;21.50;;;12.80;;
71296;SDS011;59082;50.658;4.608;2023-04-24T06:55:01;26.08;;;15.23;;
71296;SDS011;59082;50.658;4.608;2023-04-24T06:57:27;23.50;;;14.50;;
71296;SDS011;59082;50.658;4.608;2023-04-24T06:59:53;25.60;;;14.40;;
71296;SDS011;59082;50.658;4.608;2023-04-24T07:02:18;23.33;;;14.53;;
71296;SDS011;59082;50.658;4.608;2023-04-24T07:04:43;22.97;;;14.47;;
71296;SDS011;59082;50.658;4.608;2023-04-24T07:07:09;27.17;;;15.50;;
71296;SDS011;59082;50.658;4.608;2023-04-24T07:09:38;22.55;;;12.20;;
71296;SDS011;59082;50.658;4.608;2023-04-24T07:12:06;23.55;;;14.15;;
71296;SDS011;59082;50.658;4.608;2023-04-24T07:14:32;24.67;;;15.07;;
71296;SDS011;59082;50.658;4.608;2023-04-24T07:16:57;25.33;;;13.43;;
71296;SDS011;59082;50.658;4.608;2023-04-24T07:19:23;24.57;;;13.60;;
71296;SDS011;59082;50.658;4.608;2023-04-24T07:21:48;33.00;;;14.67;;
71296;SDS011;59082;50.658;4.608;2023-04-24T07:24:14;25.70;;;15.27;;
71296;SDS011;59082;50.658;4.608;2023-04-24T07:26:39;23.27;;;13.07;;
71296;SDS011;59082;50.658;4.608;2023-04-24T07:29:05;21.37;;;14.87;;
71296;SDS011;59082;50.658;4.608;2023-04-24T07:31:31;25.35;;;13.88;;
71296;SDS011;59082;50.658;4.608;2023-04-24T07:33:56;26.50;;;14.33;;
71296;SDS011;59082;50.658;4.608;2023-04-24T07:36:23;27.83;;;14.43;;
71296;SDS011;59082;50.658;4.608;2023-04-24T07:38:49;24.23;;;13.38;;
71296;SDS011;59082;50.658;4.608;2023-04-24T07:41:14;21.63;;;12.70;;
71296;SDS011;59082;50.658;4.608;2023-04-24T07:43:40;19.02;;;11.50;;
71296;SDS011;59082;50.658;4.608;2023-04-24T07:46:06;24.87;;;14.47;;
71296;SDS011;59082;50.658;4.608;2023-04-24T07:48:31;26.45;;;14.15;;
71296;SDS011;59082;50.658;4.608;2023-04-24T07:50:57;21.90;;;13.57;;
71296;SDS011;59082;50.658;4.608;2023-04-24T07:53:22;19.60;;;12.40;;
71296;SDS011;59082;50.658;4.608;2023-04-24T07:55:47;21.57;;;13.27;;
71296;SDS011;59082;50.658;4.608;2023-04-24T07:58:13;20.13;;;12.38;;
71296;SDS011;59082;50.658;4.608;2023-04-24T08:00:38;28.07;;;16.93;;
71296;SDS011;59082;50.658;4.608;2023-04-24T08:03:04;22.27;;;12.00;;
71296;SDS011;59082;50.658;4.608;2023-04-24T08:05:29;19.15;;;12.00;;
71296;SDS011;59082;50.658;4.608;2023-04-24T08:07:55;18.97;;;11.50;;
71296;SDS011;59082;50.658;4.608;2023-04-24T08:10:24;20.02;;;12.27;;
71296;SDS011;59082;50.658;4.608;2023-04-24T08:12:50;15.03;;;10.10;;
71296;SDS011;59082;50.658;4.608;2023-04-24T08:15:15;18.17;;;10.82;;
71296;SDS011;59082;50.658;4.608;2023-04-24T08:17:41;16.97;;;10.53;;
71296;SDS011;59082;50.658;4.608;2023-04-24T08:20:06;18.67;;;10.67;;
71296;SDS011;59082;50.658;4.608;2023-04-24T08:22:41;19.70;;;12.15;;
71296;SDS011;59082;50.658;4.608;2023-04-24T08:25:07;22.42;;;11.13;;
71296;SDS011;59082;50.658;4.608;2023-04-24T08:27:32;18.13;;;10.97;;
71296;SDS011;59082;50.658;4.608;2023-04-24T08:29:58;22.30;;;11.45;;
71296;SDS011;59082;50.658;4.608;2023-04-24T08:32:26;19.93;;;11.03;;
71296;SDS011;59082;50.658;4.608;2023-04-24T08:34:54;19.02;;;11.32;;
71296;SDS011;59082;50.658;4.608;2023-04-24T08:37:21;13.15;;;9.13;;
71296;SDS011;59082;50.658;4.608;2023-04-24T08:39:46;11.87;;;8.53;;
71296;SDS011;59082;50.658;4.608;2023-04-24T08:42:12;16.02;;;9.23;;
71296;SDS011;59082;50.658;4.608;2023-04-24T08:44:38;16.93;;;8.97;;
71296;SDS011;59082;50.658;4.608;2023-04-24T08:47:03;16.70;;;8.88;;
71296;SDS011;59082;50.658;4.608;2023-04-24T08:49:29;14.73;;;8.43;;
71296;SDS011;59082;50.658;4.608;2023-04-24T08:51:55;11.73;;;7.63;;
71296;SDS011;59082;50.658;4.608;2023-04-24T08:54:21;12.68;;;9.00;;
71296;SDS011;59082;50.658;4.608;2023-04-24T08:56:47;11.77;;;8.10;;
71296;SDS011;59082;50.658;4.608;2023-04-24T08:59:13;12.32;;;8.52;;
71296;SDS011;59082;50.658;4.608;2023-04-24T09:01:39;13.05;;;8.90;;
71296;SDS011;59082;50.658;4.608;2023-04-24T09:04:05;10.67;;;7.80;;
71296;SDS011;59082;50.658;4.608;2023-04-24T09:06:31;13.05;;;7.70;;
71296;SDS011;59082;50.658;4.608;2023-04-24T09:08:59;13.02;;;7.18;;
71296;SDS011;59082;50.658;4.608;2023-04-24T09:11:25;12.27;;;7.53;;
71296;SDS011;59082;50.658;4.608;2023-04-24T09:13:51;14.77;;;8.13;;
71296;SDS011;59082;50.658;4.608;2023-04-24T09:16:17;14.75;;;7.90;;
71296;SDS011;59082;50.658;4.608;2023-04-24T09:18:43;10.30;;;7.03;;
71296;SDS011;59082;50.658;4.608;2023-04-24T09:21:08;10.47;;;6.80;;
71296;SDS011;59082;50.658;4.608;2023-04-24T09:23:34;8.30;;;5.07;;
71296;SDS011;59082;50.658;4.608;2023-04-24T09:26:01;9.90;;;7.38;;
71296;SDS011;59082;50.658;4.608;2023-04-24T09:28:31;10.68;;;5.25;;
71296;SDS011;59082;50.658;4.608;2023-04-24T09:33:31;9.77;;;4.90;;
71296;SDS011;59082;50.658;4.608;2023-04-24T09:35:57;8.07;;;4.73;;
71296;SDS011;59082;50.658;4.608;2023-04-24T09:41:01;10.15;;;5.95;;
71296;SDS011;59082;50.658;4.608;2023-04-24T09:43:28;6.65;;;4.78;;
71296;SDS011;59082;50.658;4.608;2023-04-24T09:45:55;6.77;;;5.83;;
71296;SDS011;59082;50.658;4.608;2023-04-24T09:48:29;9.40;;;5.45;;
71296;SDS011;59082;50.658;4.608;2023-04-24T09:50:54;8.18;;;5.68;;
71296;SDS011;59082;50.658;4.608;2023-04-24T09:53:23;8.17;;;5.00;;
71296;SDS011;59082;50.658;4.608;2023-04-24T09:55:48;8.02;;;5.22;;
71296;SDS011;59082;50.658;4.608;2023-04-24T09:58:15;7.70;;;5.00;;
71296;SDS011;59082;50.658;4.608;2023-04-24T10:00:40;7.22;;;3.88;;
71296;SDS011;59082;50.658;4.608;2023-04-24T10:03:06;8.30;;;4.73;;
71296;SDS011;59082;50.658;4.608;2023-04-24T10:05:32;8.47;;;5.70;;
71296;SDS011;59082;50.658;4.608;2023-04-24T10:07:59;6.90;;;4.80;;
71296;SDS011;59082;50.658;4.608;2023-04-24T10:10:25;5.10;;;3.58;;
71296;SDS011;59082;50.658;4.608;2023-04-24T10:12:51;5.63;;;2.80;;
71296;SDS011;59082;50.658;4.608;2023-04-24T10:15:16;5.47;;;3.10;;
71296;SDS011;59082;50.658;4.608;2023-04-24T10:17:46;5.57;;;2.55;;
71296;SDS011;59082;50.658;4.608;2023-04-24T10:20:17;6.97;;;3.17;;
71296;SDS011;59082;50.658;4.608;2023-04-24T10:22:42;6.47;;;3.03;;
71296;SDS011;59082;50.658;4.608;2023-04-24T10:25:09;5.95;;;3.47;;
71296;SDS011;59082;50.658;4.608;2023-04-24T10:27:35;3.97;;;2.40;;
71296;SDS011;59082;50.658;4.608;2023-04-24T10:30:01;7.45;;;3.50;;
71296;SDS011;59082;50.658;4.608;2023-04-24T10:32:26;5.35;;;3.90;;
71296;SDS011;59082;50.658;4.608;2023-04-24T10:34:52;5.33;;;4.07;;
71296;SDS011;59082;50.658;4.608;2023-04-24T10:37:17;6.33;;;4.03;;
71296;SDS011;59082;50.658;4.608;2023-04-24T10:39:43;6.32;;;4.25;;
71296;SDS011;59082;50.658;4.608;2023-04-24T10:42:15;6.47;;;4.20;;
71296;SDS011;59082;50.658;4.608;2023-04-24T10:44:41;4.88;;;3.72;;
71296;SDS011;59082;50.658;4.608;2023-04-24T10:47:07;6.30;;;4.63;;
71296;SDS011;59082;50.658;4.608;2023-04-24T10:49:37;7.85;;;3.95;;
71296;SDS011;59082;50.658;4.608;2023-04-24T10:52:03;5.50;;;4.57;;
71296;SDS011;59082;50.658;4.608;2023-04-24T10:54:34;4.80;;;3.85;;
71296;SDS011;59082;50.658;4.608;2023-04-24T10:59:52;8.77;;;3.65;;
71296;SDS011;59082;50.658;4.608;2023-04-24T11:02:38;5.20;;;3.92;;
71296;SDS011;59082;50.658;4.608;2023-04-24T11:05:05;7.87;;;4.80;;
71296;SDS011;59082;50.658;4.608;2023-04-24T11:08:09;8.80;;;5.00;;
71296;SDS011;59082;50.658;4.608;2023-04-24T11:10:26;7.65;;;5.63;;
71296;SDS011;59082;50.658;4.608;2023-04-24T11:12:51;11.75;;;6.00;;
71296;SDS011;59082;50.658;4.608;2023-04-24T11:15:16;8.70;;;7.17;;
71296;SDS011;59082;50.658;4.608;2023-04-24T11:17:44;8.88;;;6.38;;
71296;SDS011;59082;50.658;4.608;2023-04-24T11:20:11;8.95;;;6.82;;
71296;SDS011;59082;50.658;4.608;2023-04-24T11:22:38;10.77;;;8.23;;
71296;SDS011;59082;50.658;4.608;2023-04-24T11:25:08;10.15;;;6.88;;
71296;SDS011;59082;50.658;4.608;2023-04-24T11:30:07;10.38;;;7.25;;
71296;SDS011;59082;50.658;4.608;2023-04-24T11:34:59;11.87;;;7.50;;
71296;SDS011;59082;50.658;4.608;2023-04-24T11:37:30;13.93;;;8.93;;
71296;SDS011;59082;50.658;4.608;2023-04-24T11:39:59;9.37;;;7.30;;
71296;SDS011;59082;50.658;4.608;2023-04-24T11:42:24;11.13;;;7.88;;
71296;SDS011;59082;50.658;4.608;2023-04-24T11:44:53;11.95;;;8.60;;
71296;SDS011;59082;50.658;4.608;2023-04-24T11:47:27;10.05;;;8.30;;
71296;SDS011;59082;50.658;4.608;2023-04-24T11:49:52;9.50;;;7.60;;
71296;SDS011;59082;50.658;4.608;2023-04-24T11:52:17;11.95;;;8.05;;
71296;SDS011;59082;50.658;4.608;2023-04-24T11:54:47;10.70;;;8.07;;
71296;SDS011;59082;50.658;4.608;2023-04-24T11:57:12;9.38;;;7.68;;
71296;SDS011;59082;50.658;4.608;2023-04-24T11:59:37;13.90;;;9.00;;
71296;SDS011;59082;50.658;4.608;2023-04-24T12:02:03;10.50;;;9.20;;
71296;SDS011;59082;50.658;4.608;2023-04-24T12:04:37;11.50;;;7.70;;
71296;SDS011;59082;50.658;4.608;2023-04-24T12:07:03;11.13;;;7.88;;
71296;SDS011;59082;50.658;4.608;2023-04-24T12:09:54;9.33;;;8.43;;
71296;SDS011;59082;50.658;4.608;2023-04-24T12:12:16;8.93;;;8.15;;
71296;SDS011;59082;50.658;4.608;2023-04-24T12:14:48;8.57;;;6.82;;
71296;SDS011;59082;50.658;4.608;2023-04-24T12:17:14;10.50;;;7.60;;
71296;SDS011;59082;50.658;4.608;2023-04-24T12:19:44;7.73;;;5.80;;
71296;SDS011;59082;50.658;4.608;2023-04-24T12:22:10;8.35;;;6.50;;
71296;SDS011;59082;50.658;4.608;2023-04-24T12:24:54;8.70;;;6.23;;
71296;SDS011;59082;50.658;4.608;2023-04-24T12:27:20;9.15;;;6.00;;
71296;SDS011;59082;50.658;4.608;2023-04-24T12:29:52;8.80;;;7.23;;
71296;SDS011;59082;50.658;4.608;2023-04-24T12:32:18;9.60;;;8.63;;
71296;SDS011;59082;50.658;4.608;2023-04-24T12:34:44;9.73;;;7.97;;
71296;SDS011;59082;50.658;4.608;2023-04-24T12:37:10;10.38;;;6.07;;
71296;SDS011;59082;50.658;4.608;2023-04-24T12:39:36;8.77;;;7.17;;
71296;SDS011;59082;50.658;4.608;2023-04-24T12:42:01;7.95;;;6.60;;
71296;SDS011;59082;50.658;4.608;2023-04-24T12:44:33;7.23;;;6.07;;
71296;SDS011;59082;50.658;4.608;2023-04-24T12:46:59;6.78;;;6.00;;
71296;SDS011;59082;50.658;4.608;2023-04-24T12:49:25;8.10;;;5.97;;
71296;SDS011;59082;50.658;4.608;2023-04-24T12:51:50;8.50;;;6.00;;
71296;SDS011;59082;50.658;4.608;2023-04-24T12:54:16;10.40;;;6.93;;
71296;SDS011;59082;50.658;4.608;2023-04-24T12:56:41;8.07;;;6.30;;
71296;SDS011;59082;50.658;4.608;2023-04-24T12:59:06;6.10;;;5.50;;
71296;SDS011;59082;50.658;4.608;2023-04-24T13:01:32;10.20;;;6.80;;
71296;SDS011;59082;50.658;4.608;2023-04-24T13:03:57;11.23;;;6.83;;
71296;SDS011;59082;50.658;4.608;2023-04-24T13:06:23;9.25;;;7.57;;
71296;SDS011;59082;50.658;4.608;2023-04-24T13:08:48;7.53;;;5.97;;
71296;SDS011;59082;50.658;4.608;2023-04-24T13:11:14;6.03;;;5.07;;
71296;SDS011;59082;50.658;4.608;2023-04-24T13:13:39;7.13;;;5.70;;
71296;SDS011;59082;50.658;4.608;2023-04-24T13:16:05;7.57;;;5.97;;
71296;SDS011;59082;50.658;4.608;2023-04-24T13:18:30;10.13;;;6.47;;
71296;SDS011;59082;50.658;4.608;2023-04-24T13:20:55;8.17;;;5.67;;
71296;SDS011;59082;50.658;4.608;2023-04-24T13:23:22;8.63;;;6.70;;
71296;SDS011;59082;50.658;4.608;2023-04-24T13:25:48;10.57;;;7.20;;
71296;SDS011;59082;50.658;4.608;2023-04-24T13:28:13;11.82;;;6.75;;
71296;SDS011;59082;50.658;4.608;2023-04-24T13:30:38;9.67;;;7.03;;
71296;SDS011;59082;50.658;4.608;2023-04-24T13:33:04;8.30;;;6.80;;
71296;SDS011;59082;50.658;4.608;2023-04-24T13:35:29;10.53;;;6.77;;
71296;SDS011;59082;50.658;4.608;2023-04-24T13:37:55;9.43;;;6.65;;
71296;SDS011;59082;50.658;4.608;2023-04-24T13:40:20;9.57;;;6.27;;
71296;SDS011;59082;50.658;4.608;2023-04-24T13:42:46;10.37;;;6.40;;
71296;SDS011;59082;50.658;4.608;2023-04-24T13:45:11;9.27;;;5.87;;
71296;SDS011;59082;50.658;4.608;2023-04-24T13:47:36;12.63;;;7.72;;
71296;SDS011;59082;50.658;4.608;2023-04-24T13:50:02;9.90;;;6.70;;
71296;SDS011;59082;50.658;4.608;2023-04-24T13:52:28;8.90;;;6.67;;
71296;SDS011;59082;50.658;4.608;2023-04-24T13:54:53;10.55;;;5.53;;
71296;SDS011;59082;50.658;4.608;2023-04-24T13:57:18;10.73;;;6.53;;
71296;SDS011;59082;50.658;4.608;2023-04-24T13:59:44;10.93;;;7.60;;
71296;SDS011;59082;50.658;4.608;2023-04-24T14:02:11;10.93;;;7.13;;
71296;SDS011;59082;50.658;4.608;2023-04-24T14:04:36;8.57;;;7.13;;
71296;SDS011;59082;50.658;4.608;2023-04-24T14:07:02;12.80;;;6.87;;
71296;SDS011;59082;50.658;4.608;2023-04-24T14:09:29;13.27;;;7.77;;
71296;SDS011;59082;50.658;4.608;2023-04-24T14:11:54;11.02;;;7.57;;
71296;SDS011;59082;50.658;4.608;2023-04-24T14:14:20;12.40;;;7.73;;
71296;SDS011;59082;50.658;4.608;2023-04-24T14:16:45;11.70;;;8.23;;
71296;SDS011;59082;50.658;4.608;2023-04-24T14:19:10;12.30;;;7.50;;
71296;SDS011;59082;50.658;4.608;2023-04-24T14:21:36;10.77;;;7.73;;
71296;SDS011;59082;50.658;4.608;2023-04-24T14:24:01;10.90;;;8.07;;
71296;SDS011;59082;50.658;4.608;2023-04-24T14:26:26;15.30;;;9.37;;
71296;SDS011;59082;50.658;4.608;2023-04-24T14:28:52;12.93;;;8.93;;
71296;SDS011;59082;50.658;4.608;2023-04-24T14:31:18;12.93;;;9.02;;
71296;SDS011;59082;50.658;4.608;2023-04-24T14:33:44;12.50;;;10.23;;
71296;SDS011;59082;50.658;4.608;2023-04-24T14:36:11;13.82;;;9.63;;
71296;SDS011;59082;50.658;4.608;2023-04-24T14:38:37;14.02;;;10.05;;
71296;SDS011;59082;50.658;4.608;2023-04-24T14:41:02;15.57;;;11.03;;
71296;SDS011;59082;50.658;4.608;2023-04-24T14:43:33;17.23;;;11.55;;
71296;SDS011;59082;50.658;4.608;2023-04-24T14:46:00;16.73;;;12.03;;
71296;SDS011;59082;50.658;4.608;2023-04-24T14:48:26;20.48;;;12.45;;
71296;SDS011;59082;50.658;4.608;2023-04-24T14:50:51;23.00;;;12.83;;
71296;SDS011;59082;50.658;4.608;2023-04-24T14:53:17;20.27;;;12.07;;
71296;SDS011;59082;50.658;4.608;2023-04-24T14:55:42;16.92;;;12.10;;
71296;SDS011;59082;50.658;4.608;2023-04-24T14:58:11;18.47;;;12.80;;
71296;SDS011;59082;50.658;4.608;2023-04-24T15:00:36;17.87;;;11.47;;
71296;SDS011;59082;50.658;4.608;2023-04-24T15:03:04;17.60;;;11.52;;
71296;SDS011;59082;50.658;4.608;2023-04-24T15:05:30;18.97;;;11.73;;
71296;SDS011;59082;50.658;4.608;2023-04-24T15:07:56;17.00;;;11.80;;
71296;SDS011;59082;50.658;4.608;2023-04-24T15:10:24;17.77;;;11.73;;
71296;SDS011;59082;50.658;4.608;2023-04-24T15:15:19;13.30;;;10.15;;
71296;SDS011;59082;50.658;4.608;2023-04-24T15:17:44;17.33;;;11.20;;
71296;SDS011;59082;50.658;4.608;2023-04-24T15:20:10;13.35;;;9.55;;
71296;SDS011;59082;50.658;4.608;2023-04-24T15:22:35;13.17;;;8.80;;
71296;SDS011;59082;50.658;4.608;2023-04-24T15:25:02;14.60;;;9.93;;
71296;SDS011;59082;50.658;4.608;2023-04-24T15:27:38;10.82;;;8.05;;
71296;SDS011;59082;50.658;4.608;2023-04-24T15:30:04;10.43;;;7.63;;
71296;SDS011;59082;50.658;4.608;2023-04-24T15:32:29;10.73;;;7.37;;
71296;SDS011;59082;50.658;4.608;2023-04-24T15:34:55;9.63;;;6.50;;
71296;SDS011;59082;50.658;4.608;2023-04-24T15:37:20;11.05;;;7.38;;
71296;SDS011;59082;50.658;4.608;2023-04-24T15:39:45;9.17;;;5.83;;
71296;SDS011;59082;50.658;4.608;2023-04-24T15:42:11;6.93;;;4.57;;
71296;SDS011;59082;50.658;4.608;2023-04-24T15:44:36;4.47;;;3.17;;
71296;SDS011;59082;50.658;4.608;2023-04-24T15:47:02;6.45;;;3.50;;
71296;SDS011;59082;50.658;4.608;2023-04-24T15:49:27;3.73;;;2.17;;
71296;SDS011;59082;50.658;4.608;2023-04-24T15:51:52;3.40;;;2.50;;
71296;SDS011;59082;50.658;4.608;2023-04-24T15:54:18;3.57;;;2.67;;
71296;SDS011;59082;50.658;4.608;2023-04-24T15:56:43;3.77;;;2.43;;
71296;SDS011;59082;50.658;4.608;2023-04-24T15:59:09;4.28;;;2.72;;
71296;SDS011;59082;50.658;4.608;2023-04-24T16:01:34;5.10;;;3.37;;
71296;SDS011;59082;50.658;4.608;2023-04-24T16:04:00;3.70;;;3.00;;
71296;SDS011;59082;50.658;4.608;2023-04-24T16:06:26;2.78;;;2.38;;
71296;SDS011;59082;50.658;4.608;2023-04-24T16:08:52;3.83;;;3.00;;
71296;SDS011;59082;50.658;4.608;2023-04-24T16:11:17;4.43;;;2.67;;
71296;SDS011;59082;50.658;4.608;2023-04-24T16:13:42;3.13;;;2.57;;
71296;SDS011;59082;50.658;4.608;2023-04-24T16:16:08;4.43;;;3.00;;
71296;SDS011;59082;50.658;4.608;2023-04-24T16:18:33;3.07;;;2.13;;
71296;SDS011;59082;50.658;4.608;2023-04-24T16:20:59;4.30;;;2.20;;
71296;SDS011;59082;50.658;4.608;2023-04-24T16:23:24;2.93;;;2.43;;
71296;SDS011;59082;50.658;4.608;2023-04-24T16:25:50;2.53;;;2.13;;
71296;SDS011;59082;50.658;4.608;2023-04-24T16:28:18;5.35;;;3.25;;
71296;SDS011;59082;50.658;4.608;2023-04-24T16:30:43;5.90;;;2.90;;
71296;SDS011;59082;50.658;4.608;2023-04-24T16:33:09;4.18;;;2.75;;
71296;SDS011;59082;50.658;4.608;2023-04-24T16:35:35;4.53;;;2.60;;
71296;SDS011;59082;50.658;4.608;2023-04-24T16:38:02;3.00;;;2.25;;
71296;SDS011;59082;50.658;4.608;2023-04-24T16:40:35;4.07;;;2.33;;
71296;SDS011;59082;50.658;4.608;2023-04-24T16:43:01;2.42;;;1.55;;
71296;SDS011;59082;50.658;4.608;2023-04-24T16:45:26;2.87;;;1.87;;
71296;SDS011;59082;50.658;4.608;2023-04-24T16:47:52;3.13;;;1.90;;
71296;SDS011;59082;50.658;4.608;2023-04-24T16:50:21;2.77;;;1.87;;
71296;SDS011;59082;50.658;4.608;2023-04-24T16:52:46;2.83;;;2.15;;
71296;SDS011;59082;50.658;4.608;2023-04-24T16:55:12;2.33;;;2.00;;
71296;SDS011;59082;50.658;4.608;2023-04-24T16:57:37;4.90;;;2.07;;
71296;SDS011;59082;50.658;4.608;2023-04-24T17:00:06;4.65;;;2.03;;
71296;SDS011;59082;50.658;4.608;2023-04-24T17:02:32;3.95;;;1.67;;
71296;SDS011;59082;50.658;4.608;2023-04-24T17:04:59;4.40;;;1.60;;
71296;SDS011;59082;50.658;4.608;2023-04-24T17:07:27;2.05;;;1.55;;
71296;SDS011;59082;50.658;4.608;2023-04-24T17:09:53;4.00;;;1.57;;
71296;SDS011;59082;50.658;4.608;2023-04-24T17:12:21;2.70;;;1.38;;
71296;SDS011;59082;50.658;4.608;2023-04-24T17:14:48;2.33;;;1.77;;
71296;SDS011;59082;50.658;4.608;2023-04-24T17:17:13;4.23;;;1.70;;
71296;SDS011;59082;50.658;4.608;2023-04-24T17:19:39;3.88;;;1.88;;
71296;SDS011;59082;50.658;4.608;2023-04-24T17:22:04;2.47;;;1.23;;
71296;SDS011;59082;50.658;4.608;2023-04-24T17:24:29;5.43;;;1.30;;
71296;SDS011;59082;50.658;4.608;2023-04-24T17:26:55;1.60;;;1.20;;
71296;SDS011;59082;50.658;4.608;2023-04-24T17:29:21;2.63;;;1.75;;
71296;SDS011;59082;50.658;4.608;2023-04-24T17:31:46;2.60;;;1.47;;
71296;SDS011;59082;50.658;4.608;2023-04-24T17:34:12;3.50;;;2.10;;
71296;SDS011;59082;50.658;4.608;2023-04-24T17:36:38;3.35;;;1.08;;
71296;SDS011;59082;50.658;4.608;2023-04-24T17:39:04;2.57;;;1.90;;
71296;SDS011;59082;50.658;4.608;2023-04-24T17:44:01;2.95;;;1.80;;
71296;SDS011;59082;50.658;4.608;2023-04-24T17:46:27;4.90;;;1.80;;
71296;SDS011;59082;50.658;4.608;2023-04-24T17:48:53;3.80;;;1.50;;
71296;SDS011;59082;50.658;4.608;2023-04-24T17:51:19;2.88;;;1.48;;
71296;SDS011;59082;50.658;4.608;2023-04-24T17:53:44;13.20;;;7.53;;
71296;SDS011;59082;50.658;4.608;2023-04-24T17:56:09;4.83;;;1.93;;
71296;SDS011;59082;50.658;4.608;2023-04-24T17:58:35;3.13;;;1.67;;
71296;SDS011;59082;50.658;4.608;2023-04-24T18:01:01;3.73;;;1.77;;
71296;SDS011;59082;50.658;4.608;2023-04-24T18:03:26;3.45;;;1.35;;
71296;SDS011;59082;50.658;4.608;2023-04-24T18:05:52;3.27;;;1.70;;
71296;SDS011;59082;50.658;4.608;2023-04-24T18:08:18;2.40;;;0.90;;
71296;SDS011;59082;50.658;4.608;2023-04-24T18:10:43;1.73;;;1.30;;
71296;SDS011;59082;50.658;4.608;2023-04-24T18:13:08;4.20;;;1.60;;
71296;SDS011;59082;50.658;4.608;2023-04-24T18:15:34;3.40;;;2.03;;
71296;SDS011;59082;50.658;4.608;2023-04-24T18:18:00;4.53;;;1.30;;
71296;SDS011;59082;50.658;4.608;2023-04-24T18:20:25;3.43;;;1.20;;
71296;SDS011;59082;50.658;4.608;2023-04-24T18:22:51;3.60;;;1.52;;
71296;SDS011;59082;50.658;4.608;2023-04-24T18:25:16;2.33;;;1.43;;
71296;SDS011;59082;50.658;4.608;2023-04-24T18:27:45;4.70;;;2.13;;
71296;SDS011;59082;50.658;4.608;2023-04-24T18:30:10;1.73;;;1.20;;
71296;SDS011;59082;50.658;4.608;2023-04-24T18:32:36;3.47;;;2.40;;
71296;SDS011;59082;50.658;4.608;2023-04-24T18:35:01;5.93;;;1.60;;
71296;SDS011;59082;50.658;4.608;2023-04-24T18:37:28;4.05;;;1.85;;
71296;SDS011;59082;50.658;4.608;2023-04-24T18:39:53;4.00;;;1.33;;
71296;SDS011;59082;50.658;4.608;2023-04-24T18:42:20;3.50;;;2.08;;
71296;SDS011;59082;50.658;4.608;2023-04-24T18:44:45;3.83;;;1.47;;
71296;SDS011;59082;50.658;4.608;2023-04-24T18:47:11;4.70;;;2.30;;
71296;SDS011;59082;50.658;4.608;2023-04-24T18:49:37;3.50;;;1.67;;
71296;SDS011;59082;50.658;4.608;2023-04-24T18:52:03;2.20;;;1.85;;
71296;SDS011;59082;50.658;4.608;2023-04-24T18:54:30;3.50;;;2.10;;
71296;SDS011;59082;50.658;4.608;2023-04-24T18:56:55;5.30;;;2.40;;
71296;SDS011;59082;50.658;4.608;2023-04-24T18:59:22;3.67;;;2.70;;
71296;SDS011;59082;50.658;4.608;2023-04-24T19:01:47;3.77;;;1.90;;
71296;SDS011;59082;50.658;4.608;2023-04-24T19:04:12;5.22;;;2.85;;
71296;SDS011;59082;50.658;4.608;2023-04-24T19:06:39;7.87;;;3.13;;
71296;SDS011;59082;50.658;4.608;2023-04-24T19:09:05;2.67;;;2.33;;
71296;SDS011;59082;50.658;4.608;2023-04-24T19:11:30;2.40;;;2.20;;
71296;SDS011;59082;50.658;4.608;2023-04-24T19:13:56;3.50;;;2.13;;
71296;SDS011;59082;50.658;4.608;2023-04-24T19:16:24;7.47;;;2.95;;
71296;SDS011;59082;50.658;4.608;2023-04-24T19:18:50;4.07;;;2.57;;
71296;SDS011;59082;50.658;4.608;2023-04-24T19:21:15;8.43;;;3.40;;
71296;SDS011;59082;50.658;4.608;2023-04-24T19:23:41;4.97;;;3.30;;
71296;SDS011;59082;50.658;4.608;2023-04-24T19:26:07;4.53;;;2.97;;
71296;SDS011;59082;50.658;4.608;2023-04-24T19:28:35;3.63;;;3.30;;
71296;SDS011;59082;50.658;4.608;2023-04-24T19:31:00;5.10;;;3.60;;
71296;SDS011;59082;50.658;4.608;2023-04-24T19:33:26;4.37;;;3.00;;
71296;SDS011;59082;50.658;4.608;2023-04-24T19:35:51;3.80;;;2.97;;
71296;SDS011;59082;50.658;4.608;2023-04-24T19:38:17;6.07;;;3.85;;
71296;SDS011;59082;50.658;4.608;2023-04-24T19:40:42;4.93;;;4.43;;
71296;SDS011;59082;50.658;4.608;2023-04-24T19:43:08;4.20;;;3.80;;
71296;SDS011;59082;50.658;4.608;2023-04-24T19:45:33;4.75;;;3.35;;
71296;SDS011;59082;50.658;4.608;2023-04-24T19:47:58;9.23;;;5.47;;
71296;SDS011;59082;50.658;4.608;2023-04-24T19:50:24;5.40;;;4.27;;
71296;SDS011;59082;50.658;4.608;2023-04-24T19:52:50;6.38;;;4.78;;
71296;SDS011;59082;50.658;4.608;2023-04-24T19:55:15;7.80;;;5.03;;
71296;SDS011;59082;50.658;4.608;2023-04-24T19:57:41;7.60;;;4.80;;
71296;SDS011;59082;50.658;4.608;2023-04-24T20:00:07;7.85;;;4.72;;
71296;SDS011;59082;50.658;4.608;2023-04-24T20:02:33;7.17;;;4.77;;
71296;SDS011;59082;50.658;4.608;2023-04-24T20:04:58;8.25;;;5.05;;
71296;SDS011;59082;50.658;4.608;2023-04-24T20:07:24;8.50;;;4.80;;
71296;SDS011;59082;50.658;4.608;2023-04-24T20:09:50;8.35;;;4.57;;